createdAt,value
2019-03-13T00:03:08.038Z,88.60
2019-03-13T00:05:37.587Z,89.50
2019-03-13T00:08:07.413Z,89.40
2019-03-13T00:10:37.193Z,89.10
2019-03-13T00:13:06.857Z,89.10
2019-03-13T00:15:36.404Z,92.80
2019-03-13T00:18:06.534Z,94.50
2019-03-13T00:20:36.149Z,94.30
2019-03-13T00:23:05.820Z,88.50
2019-03-13T00:25:35.381Z,88.40
2019-03-13T00:28:04.978Z,88.50
2019-03-13T00:30:35.894Z,88.50
2019-03-13T00:33:05.546Z,88.50
2019-03-13T00:35:35.106Z,88.30
2019-03-13T00:38:04.949Z,89.50
2019-03-13T00:40:34.508Z,88.10
2019-03-13T00:43:04.086Z,88.20
2019-03-13T00:45:33.636Z,88.10
2019-03-13T00:48:03.216Z,88.00
2019-03-13T00:50:33.376Z,88.10
2019-03-13T00:53:02.954Z,87.80
2019-03-13T00:55:32.516Z,99.90
2019-03-13T01:00:34.073Z,89.00
2019-03-13T01:05:36.493Z,86.20
2019-03-13T01:08:06.514Z,92.20
2019-03-13T01:10:36.549Z,86.20
2019-03-13T01:13:06.571Z,86.70
2019-03-13T01:15:36.776Z,86.20
2019-03-13T01:18:06.397Z,86.00
2019-03-13T01:20:36.490Z,88.30
2019-03-13T01:23:06.050Z,85.60
2019-03-13T01:25:35.636Z,85.50
2019-03-13T01:28:06.024Z,86.10
2019-03-13T01:30:37.249Z,84.40
2019-03-13T01:33:09.578Z,85.10
2019-03-13T01:35:40.806Z,85.10
2019-03-13T01:38:10.361Z,85.10
2019-03-13T01:40:39.957Z,85.00
2019-03-13T01:43:09.566Z,84.80
2019-03-13T01:45:39.274Z,84.80
2019-03-13T01:48:08.828Z,84.70
2019-03-13T01:50:38.475Z,85.10
2019-03-13T01:53:08.031Z,84.20
2019-03-13T01:55:37.620Z,84.20
2019-03-13T01:58:07.173Z,84.30
2019-03-13T02:00:37.801Z,84.20
2019-03-13T02:03:07.342Z,84.20
2019-03-13T02:05:36.925Z,84.20
2019-03-13T02:08:07.453Z,84.20
2019-03-13T02:10:37.049Z,84.40
2019-03-13T02:13:06.978Z,84.20
2019-03-13T02:15:36.560Z,84.20
2019-03-13T02:18:06.173Z,84.40
2019-03-13T02:20:35.775Z,84.30
2019-03-13T02:23:05.406Z,84.40
2019-03-13T02:25:35.009Z,84.30
2019-03-13T02:28:04.769Z,84.20
2019-03-13T02:30:34.724Z,84.00
2019-03-13T02:33:04.273Z,84.10
2019-03-13T02:35:33.845Z,84.10
2019-03-13T02:38:03.388Z,83.50
2019-03-13T02:40:32.970Z,84.00
2019-03-13T02:43:02.518Z,83.80
2019-03-13T02:45:32.209Z,83.80
2019-03-13T02:48:01.888Z,83.50
2019-03-13T02:50:31.480Z,83.50
2019-03-13T02:53:01.070Z,83.70
2019-03-13T02:55:30.618Z,93.40
2019-03-13T02:58:00.204Z,83.20
2019-03-13T03:00:46.599Z,83.10
2019-03-13T03:03:27.713Z,82.70
2019-03-13T03:05:58.996Z,83.50
2019-03-13T03:08:28.558Z,83.70
2019-03-13T03:10:58.233Z,82.60
2019-03-13T03:13:27.790Z,82.40
2019-03-13T03:15:57.292Z,82.30
2019-03-13T03:18:26.862Z,82.30
2019-03-13T03:20:56.379Z,82.10
2019-03-13T03:23:25.956Z,81.90
2019-03-13T03:25:55.551Z,82.10
2019-03-13T03:28:25.090Z,81.90
2019-03-13T03:30:54.643Z,81.60
2019-03-13T03:33:24.197Z,80.70
2019-03-13T03:35:55.223Z,81.10
2019-03-13T03:38:24.760Z,81.30
2019-03-13T03:40:54.247Z,80.90
2019-03-13T03:43:39.434Z,80.90
2019-03-13T03:45:54.887Z,80.80
2019-03-13T03:48:24.437Z,80.40
2019-03-13T03:50:53.928Z,80.30
2019-03-13T03:53:23.462Z,80.40
2019-03-13T03:55:53.442Z,80.30
2019-03-13T03:58:28.702Z,80.30
2019-03-13T04:00:55.634Z,80.60
2019-03-13T04:03:25.185Z,80.30
2019-03-13T04:05:54.745Z,80.30
2019-03-13T04:08:24.290Z,80.40
2019-03-13T04:10:53.776Z,80.50
2019-03-13T04:13:23.306Z,80.60
2019-03-13T04:15:53.530Z,80.60
2019-03-13T04:18:23.070Z,80.90
2019-03-13T04:20:52.570Z,80.90
2019-03-13T04:23:22.113Z,80.90
2019-03-13T04:25:51.638Z,81.00
2019-03-13T04:28:21.167Z,81.00
2019-03-13T04:30:54.630Z,80.90
2019-03-13T04:33:26.871Z,81.10
2019-03-13T04:35:55.564Z,81.30
2019-03-13T04:38:25.125Z,80.70
2019-03-13T04:40:54.588Z,81.30
2019-03-13T04:43:24.114Z,81.40
2019-03-13T04:45:53.605Z,84.60
2019-03-13T04:48:23.138Z,80.90
2019-03-13T04:50:52.629Z,81.40
2019-03-13T04:53:22.154Z,81.10
2019-03-13T04:55:52.646Z,81.00
2019-03-13T04:58:22.382Z,81.00
2019-03-13T05:00:51.881Z,80.60
2019-03-13T05:03:22.374Z,80.40
2019-03-13T05:05:52.411Z,79.50
2019-03-13T05:11:04.894Z,79.30
2019-03-13T05:13:34.439Z,79.80
2019-03-13T05:16:04.095Z,79.80
2019-03-13T05:18:33.642Z,79.60
2019-03-13T05:21:04.291Z,79.20
2019-03-13T05:23:33.839Z,79.00
2019-03-13T05:26:03.334Z,78.80
2019-03-13T05:28:32.982Z,78.50
2019-03-13T05:31:02.478Z,78.50
2019-03-13T05:33:32.026Z,78.30
2019-03-13T05:36:01.518Z,77.80
2019-03-13T05:38:31.074Z,77.60
2019-03-13T05:41:00.678Z,77.30
2019-03-13T05:43:31.837Z,77.00
2019-03-13T05:46:01.322Z,76.70
2019-03-13T05:48:32.394Z,76.90
2019-03-13T05:51:01.899Z,75.70
2019-03-13T05:53:31.425Z,75.10
2019-03-13T05:56:00.927Z,75.50
2019-03-13T05:58:30.484Z,75.00
2019-03-13T06:01:02.759Z,75.00
2019-03-13T06:03:32.306Z,75.40
2019-03-13T06:06:01.798Z,75.50
2019-03-13T06:08:31.355Z,78.20
2019-03-13T06:11:00.996Z,75.40
2019-03-13T06:13:30.598Z,75.60
2019-03-13T06:16:00.101Z,75.70
2019-03-13T06:18:29.667Z,75.40
2019-03-13T06:21:00.707Z,75.80
2019-03-13T06:23:30.265Z,75.90
2019-03-13T06:25:59.829Z,75.90
2019-03-13T06:28:29.355Z,75.90
2019-03-13T06:30:59.943Z,75.90
2019-03-13T06:33:29.430Z,75.60
2019-03-13T06:35:58.958Z,75.80
2019-03-13T06:38:28.438Z,75.50
2019-03-13T06:40:57.967Z,75.70
2019-03-13T06:43:27.453Z,75.70
2019-03-13T06:45:58.031Z,75.80
2019-03-13T06:48:27.522Z,75.50
2019-03-13T06:50:57.062Z,76.50
2019-03-13T06:53:26.546Z,76.90
2019-03-13T06:55:56.082Z,78.10
2019-03-13T06:58:27.217Z,79.70
2019-03-13T07:01:07.206Z,82.30
2019-03-13T07:03:38.604Z,84.20
2019-03-13T07:06:16.791Z,85.90
2019-03-13T07:09:02.656Z,87.60
2019-03-13T07:11:35.713Z,88.50
2019-03-13T07:14:06.996Z,90.20
2019-03-13T07:16:38.190Z,90.30
2019-03-13T07:19:09.327Z,90.90
2019-03-13T07:21:49.386Z,91.20
2019-03-13T07:24:26.462Z,91.50
2019-03-13T07:26:57.635Z,92.00
2019-03-13T07:29:31.710Z,92.10
2019-03-13T07:32:12.585Z,92.50
2019-03-13T07:34:59.598Z,92.50
2019-03-13T07:37:33.188Z,92.80
2019-03-13T07:40:07.115Z,93.00
2019-03-13T07:42:49.976Z,93.10
2019-03-13T07:45:33.026Z,93.60
2019-03-13T07:48:15.828Z,93.50
2019-03-13T07:50:47.010Z,93.60
2019-03-13T07:53:29.682Z,96.10
2019-03-13T07:56:00.881Z,93.90
2019-03-13T07:58:43.845Z,94.10
2019-03-13T08:01:13.811Z,94.30
2019-03-13T08:03:47.635Z,94.40
2019-03-13T08:06:35.039Z,94.50
2019-03-13T08:09:25.846Z,94.60
2019-03-13T08:11:57.123Z,94.80
2019-03-13T08:14:43.298Z,94.90
2019-03-13T08:17:15.259Z,94.90
2019-03-13T08:19:49.095Z,94.80
2019-03-13T08:22:36.256Z,94.90
2019-03-13T08:25:13.202Z,94.90
2019-03-13T08:27:44.390Z,95.10
2019-03-13T08:30:20.379Z,95.00
2019-03-13T08:33:03.744Z,95.10
2019-03-13T08:35:49.944Z,95.20
2019-03-13T08:38:28.619Z,95.10
2019-03-13T08:41:05.587Z,95.10
2019-03-13T08:43:54.515Z,95.20
2019-03-13T08:46:38.608Z,95.50
2019-03-13T08:49:24.854Z,95.00
2019-03-13T08:51:55.991Z,95.10
2019-03-13T08:54:27.176Z,95.00
2019-03-13T08:57:13.464Z,95.20
2019-03-13T08:59:47.086Z,95.30
2019-03-13T09:02:21.316Z,95.20
2019-03-13T09:04:55.002Z,95.50
2019-03-13T09:07:41.174Z,95.10
2019-03-13T09:10:32.094Z,95.60
2019-03-13T09:13:06.227Z,95.30
2019-03-13T09:15:37.731Z,95.30
2019-03-13T09:18:08.870Z,95.30
2019-03-13T09:20:43.039Z,95.20
2019-03-13T09:23:22.870Z,95.20
2019-03-13T09:26:00.087Z,95.30
2019-03-13T09:28:31.371Z,95.00
2019-03-13T09:31:02.570Z,94.90
2019-03-13T09:33:42.635Z,94.70
2019-03-13T09:36:13.824Z,94.60
2019-03-13T09:38:47.994Z,94.10
2019-03-13T09:41:24.758Z,94.00
2019-03-13T09:44:00.016Z,94.10
2019-03-13T09:46:45.998Z,94.00
2019-03-13T09:49:29.212Z,93.80
2019-03-13T09:52:06.471Z,93.60
2019-03-13T09:54:53.830Z,93.70
2019-03-13T09:57:41.307Z,93.40
2019-03-13T10:00:14.674Z,93.20
2019-03-13T10:02:51.920Z,93.20
2019-03-13T10:05:25.754Z,92.70
2019-03-13T10:07:56.926Z,92.90
2019-03-13T10:10:28.358Z,92.60
2019-03-13T10:13:02.527Z,92.50
2019-03-13T10:15:33.961Z,92.40
2019-03-13T10:18:05.546Z,92.30
2019-03-13T10:20:42.735Z,92.40
2019-03-13T10:23:13.938Z,92.30
2019-03-13T10:26:00.232Z,92.20
2019-03-13T10:28:50.339Z,92.60
2019-03-13T10:31:29.713Z,93.00
2019-03-13T10:34:00.925Z,92.80
2019-03-13T10:36:32.063Z,92.20
2019-03-13T10:39:03.283Z,92.20
2019-03-13T10:41:41.520Z,91.10
2019-03-13T10:44:24.737Z,90.90
2019-03-13T10:47:09.466Z,90.60
2019-03-13T10:49:41.351Z,90.90
2019-03-13T10:52:15.251Z,90.20
2019-03-13T10:54:52.291Z,87.60
2019-03-13T10:57:38.578Z,84.90
2019-03-13T11:00:12.763Z,83.40
2019-03-13T11:02:52.809Z,82.20
2019-03-13T11:05:40.002Z,83.80
2019-03-13T11:08:20.151Z,76.40
2019-03-13T11:11:00.414Z,71.80
2019-03-13T11:13:47.703Z,64.40
2019-03-13T11:16:24.806Z,62.20
2019-03-13T11:19:04.817Z,62.20
2019-03-13T11:21:48.055Z,60.10
2019-03-13T11:24:19.187Z,57.90
2019-03-13T11:27:05.122Z,58.20
2019-03-13T11:29:52.543Z,57.90
2019-03-13T11:32:23.728Z,56.70
2019-03-13T11:35:11.204Z,56.40
2019-03-13T11:38:00.180Z,51.50
2019-03-13T11:40:43.522Z,49.10
2019-03-13T11:43:30.858Z,45.10
2019-03-13T11:46:02.065Z,43.60
2019-03-13T11:48:41.754Z,45.60
2019-03-13T11:51:15.924Z,47.80
2019-03-13T11:53:49.775Z,52.70
2019-03-13T11:56:21.879Z,54.70
2019-03-13T11:59:05.019Z,55.10
2019-03-13T12:01:46.042Z,56.90
2019-03-13T12:04:29.479Z,59.00
2019-03-13T12:07:12.557Z,60.00
2019-03-13T12:09:52.586Z,58.80
2019-03-13T12:12:26.559Z,58.70
2019-03-13T12:15:00.515Z,58.50
2019-03-13T12:17:33.414Z,57.60
2019-03-13T12:20:20.854Z,56.00
2019-03-13T12:22:54.769Z,58.40
2019-03-13T12:25:28.830Z,60.40
2019-03-13T12:28:02.905Z,55.70
2019-03-13T12:30:37.132Z,48.90
2019-03-13T12:33:17.420Z,44.90
2019-03-13T12:35:57.428Z,45.40
2019-03-13T12:38:31.271Z,50.30
2019-03-13T12:41:17.761Z,50.90
2019-03-13T12:43:51.663Z,51.20
2019-03-13T12:46:31.933Z,50.10
2019-03-13T12:49:10.122Z,52.70
2019-03-13T12:51:55.827Z,53.50
2019-03-13T12:54:29.935Z,56.20
2019-03-13T12:57:01.150Z,56.10
2019-03-13T12:59:48.563Z,56.60
2019-03-13T13:02:19.744Z,58.00
2019-03-13T13:05:05.748Z,57.40
2019-03-13T13:07:48.703Z,58.20
2019-03-13T13:10:22.554Z,59.20
2019-03-13T13:12:56.239Z,59.20
2019-03-13T13:15:28.334Z,59.60
2019-03-13T13:18:11.430Z,58.10
2019-03-13T13:20:40.919Z,58.90
2019-03-13T13:23:10.511Z,57.80
2019-03-13T13:25:40.134Z,57.40
2019-03-13T13:28:10.003Z,58.10
2019-03-13T13:30:39.583Z,59.00
2019-03-13T13:33:09.106Z,59.00
2019-03-13T13:35:38.635Z,57.80
2019-03-13T13:38:10.196Z,57.80
2019-03-13T13:40:39.406Z,57.60
2019-03-13T13:43:09.138Z,57.40
2019-03-13T13:45:41.714Z,56.80
2019-03-13T13:48:11.266Z,54.90
2019-03-13T13:50:40.807Z,54.50
2019-03-13T13:53:10.339Z,55.00
2019-03-13T13:55:40.049Z,54.50
2019-03-13T13:58:09.531Z,49.80
2019-03-13T14:00:39.151Z,48.40
2019-03-13T14:03:08.643Z,45.10
2019-03-13T14:05:40.754Z,47.50
2019-03-13T14:08:09.399Z,47.80
2019-03-13T14:10:39.687Z,47.60
2019-03-13T14:13:09.174Z,47.50
2019-03-13T14:15:38.738Z,50.50
2019-03-13T14:18:08.654Z,49.50
2019-03-13T14:20:38.174Z,52.00
2019-03-13T14:23:07.662Z,51.60
2019-03-13T14:25:37.875Z,52.40
2019-03-13T14:28:08.478Z,52.50
2019-03-13T14:30:38.045Z,54.50
2019-03-13T14:33:07.887Z,55.50
2019-03-13T14:35:37.647Z,55.30
2019-03-13T14:38:07.161Z,53.70
2019-03-13T14:40:38.378Z,52.10
2019-03-13T14:43:07.875Z,52.70
2019-03-13T14:45:37.822Z,54.60
2019-03-13T14:48:07.316Z,55.40
2019-03-13T14:50:36.912Z,55.00
2019-03-13T14:53:06.433Z,55.10
2019-03-13T14:55:36.115Z,55.30
2019-03-13T14:58:07.108Z,55.70
2019-03-13T15:00:36.680Z,56.20
2019-03-13T15:03:06.276Z,56.00
2019-03-13T15:05:35.794Z,56.90
2019-03-13T15:08:08.053Z,57.10
2019-03-13T15:10:37.631Z,58.00
2019-03-13T15:13:07.243Z,57.30
2019-03-13T15:15:36.747Z,57.30
2019-03-13T15:18:07.110Z,57.70
2019-03-13T15:20:36.725Z,57.70
2019-03-13T15:23:07.518Z,57.90
2019-03-13T15:25:37.714Z,58.70
2019-03-13T15:28:07.202Z,58.60
2019-03-13T15:30:37.035Z,59.10
2019-03-13T15:33:06.624Z,59.70
2019-03-13T15:35:36.274Z,59.50
2019-03-13T15:38:06.062Z,60.10
2019-03-13T15:40:35.563Z,59.50
2019-03-13T15:43:05.162Z,60.30
2019-03-13T15:45:36.191Z,60.70
2019-03-13T15:48:05.870Z,60.60
2019-03-13T15:50:36.025Z,60.90
2019-03-13T15:53:05.565Z,61.40
2019-03-13T15:55:35.069Z,61.70
2019-03-13T15:58:04.750Z,61.40
2019-03-13T16:00:34.318Z,61.80
2019-03-13T16:03:03.932Z,62.40
2019-03-13T16:05:33.470Z,61.60
2019-03-13T16:08:03.075Z,61.90
2019-03-13T16:10:32.566Z,61.50
2019-03-13T16:13:03.738Z,62.20
2019-03-13T16:15:35.046Z,62.40
2019-03-13T16:18:05.968Z,62.90
2019-03-13T16:20:37.003Z,62.50
2019-03-13T16:23:06.599Z,62.60
2019-03-13T16:25:36.167Z,63.50
2019-03-13T16:28:05.782Z,62.80
2019-03-13T16:30:52.144Z,62.70
2019-03-13T16:33:22.652Z,62.80
2019-03-13T16:35:52.134Z,63.60
2019-03-13T16:38:21.689Z,63.20
2019-03-13T16:40:51.150Z,63.50
2019-03-13T16:43:20.686Z,63.80
2019-03-13T16:45:50.170Z,63.70
2019-03-13T16:48:19.698Z,64.00
2019-03-13T16:50:49.178Z,63.30
2019-03-13T16:53:19.678Z,63.10
2019-03-13T16:55:49.172Z,62.80
2019-03-13T16:58:18.690Z,62.70
2019-03-13T17:00:50.480Z,62.40
2019-03-13T17:03:19.478Z,62.40
2019-03-13T17:05:48.959Z,62.50
2019-03-13T17:08:18.490Z,61.70
2019-03-13T17:10:47.974Z,61.70
2019-03-13T17:13:17.507Z,61.40
2019-03-13T17:15:47.063Z,61.10
2019-03-13T17:18:16.650Z,60.80
2019-03-13T17:20:46.134Z,61.50
2019-03-13T17:23:15.674Z,61.30
2019-03-13T17:25:45.230Z,61.20
2019-03-13T17:28:14.838Z,61.80
2019-03-13T17:30:44.334Z,61.50
2019-03-13T17:33:13.866Z,62.10
2019-03-13T17:35:43.395Z,62.70
2019-03-13T17:38:13.062Z,62.30
2019-03-13T17:40:42.550Z,62.10
2019-03-13T17:43:12.082Z,62.60
2019-03-13T17:45:41.574Z,63.20
2019-03-13T17:48:11.098Z,62.60
2019-03-13T17:50:40.623Z,62.80
2019-03-13T17:53:10.145Z,62.80
2019-03-13T17:55:39.708Z,63.40
2019-03-13T17:58:09.274Z,63.00
2019-03-13T18:00:50.907Z,63.40
2019-03-13T18:03:21.538Z,63.40
2019-03-13T18:05:51.030Z,63.50
2019-03-13T18:08:20.693Z,64.40
2019-03-13T18:10:50.218Z,63.70
2019-03-13T18:13:19.790Z,64.00
2019-03-13T18:15:49.287Z,64.00
2019-03-13T18:18:18.827Z,64.00
2019-03-13T18:20:48.390Z,63.70
2019-03-13T18:23:17.922Z,63.90
2019-03-13T18:25:47.405Z,64.10
2019-03-13T18:28:16.951Z,64.60
2019-03-13T18:30:46.455Z,64.40
2019-03-13T18:33:15.974Z,65.00
2019-03-13T18:35:45.583Z,65.60
2019-03-13T18:38:15.190Z,66.10
2019-03-13T18:40:45.918Z,66.30
2019-03-13T18:43:15.466Z,66.80
2019-03-13T18:45:44.949Z,67.10
2019-03-13T18:48:14.483Z,67.50
2019-03-13T18:50:45.030Z,67.90
2019-03-13T18:53:14.562Z,67.90
2019-03-13T18:55:44.058Z,67.90
2019-03-13T18:58:14.311Z,67.80
2019-03-13T19:00:43.888Z,68.30
2019-03-13T19:03:13.486Z,67.90
2019-03-13T19:05:42.996Z,68.10
2019-03-13T19:08:12.528Z,68.80
2019-03-13T19:10:42.014Z,67.70
2019-03-13T19:13:11.576Z,67.60
2019-03-13T19:15:41.110Z,67.70
2019-03-13T19:18:11.260Z,67.10
2019-03-13T19:20:40.747Z,66.60
2019-03-13T19:23:10.309Z,66.80
2019-03-13T19:25:40.194Z,66.80
2019-03-13T19:28:09.715Z,66.80
2019-03-13T19:30:39.440Z,66.40
2019-03-13T19:33:09.011Z,66.30
2019-03-13T19:35:38.694Z,66.50
2019-03-13T19:38:14.003Z,66.50
2019-03-13T19:40:43.895Z,66.80
2019-03-13T19:43:13.393Z,67.00
2019-03-13T19:45:47.486Z,67.30
2019-03-13T19:48:17.934Z,67.30
2019-03-13T19:50:48.398Z,67.30
2019-03-13T19:53:17.887Z,67.50
2019-03-13T19:55:47.638Z,67.80
2019-03-13T19:58:17.182Z,67.60
2019-03-13T20:00:46.818Z,67.80
2019-03-13T20:03:17.618Z,68.00
2019-03-13T20:05:47.194Z,68.00
2019-03-13T20:08:16.843Z,68.50
2019-03-13T20:10:46.458Z,68.60
2019-03-13T20:13:16.019Z,68.50
2019-03-13T20:15:45.705Z,68.80
2019-03-13T20:18:15.206Z,68.80
2019-03-13T20:20:44.722Z,68.70
2019-03-13T20:23:15.650Z,68.90
2019-03-13T20:25:45.182Z,68.70
2019-03-13T20:28:15.910Z,68.90
2019-03-13T20:30:45.558Z,69.20
2019-03-13T20:33:15.205Z,68.50
2019-03-13T20:35:44.810Z,68.70
2019-03-13T20:38:14.299Z,68.90
2019-03-13T20:40:43.966Z,68.80
2019-03-13T20:43:13.463Z,69.10
2019-03-13T20:45:42.998Z,69.00
2019-03-13T20:48:12.583Z,69.40
2019-03-13T20:50:42.219Z,69.10
2019-03-13T20:53:11.718Z,69.20
2019-03-13T20:55:41.634Z,69.40
2019-03-13T20:58:11.135Z,69.40
2019-03-13T21:00:40.678Z,69.50
2019-03-13T21:03:10.434Z,69.40
2019-03-13T21:05:39.977Z,69.50
2019-03-13T21:08:09.611Z,69.40
2019-03-13T21:10:39.454Z,69.40
2019-03-13T21:13:08.960Z,69.60
2019-03-13T21:15:38.508Z,69.10
2019-03-13T21:18:08.011Z,69.30
2019-03-13T21:20:38.047Z,70.00
2019-03-13T21:23:07.547Z,69.20
2019-03-13T21:25:37.084Z,69.10
2019-03-13T21:28:06.654Z,69.80
2019-03-13T21:30:36.198Z,69.20
2019-03-13T21:33:05.774Z,69.10
2019-03-13T21:35:35.314Z,69.10
2019-03-13T21:38:04.805Z,69.20
2019-03-13T21:40:34.466Z,69.70
2019-03-13T21:43:04.247Z,69.80
2019-03-13T21:45:41.001Z,69.70
2019-03-13T21:48:04.985Z,69.90
2019-03-13T21:50:35.683Z,70.10
2019-03-13T21:53:05.177Z,70.20
2019-03-13T21:55:34.776Z,70.00
2019-03-13T21:58:04.264Z,70.20
2019-03-13T22:00:33.798Z,70.00
2019-03-13T22:03:03.371Z,70.10
2019-03-13T22:05:32.974Z,70.20
2019-03-13T22:08:02.739Z,70.20
2019-03-13T22:10:32.358Z,70.20
2019-03-13T22:13:01.851Z,69.90
2019-03-13T22:15:31.450Z,69.60
2019-03-13T22:18:01.449Z,69.50
2019-03-13T22:20:32.680Z,69.20
2019-03-13T22:23:02.251Z,69.30
2019-03-13T22:25:34.086Z,69.20
2019-03-13T22:28:05.498Z,69.00
2019-03-13T22:30:35.049Z,68.50
2019-03-13T22:33:04.581Z,68.40
2019-03-13T22:35:34.121Z,68.40
2019-03-13T22:38:03.717Z,68.60
2019-03-13T22:40:33.206Z,68.50
2019-03-13T22:43:02.731Z,68.30
2019-03-13T22:45:32.210Z,68.30
2019-03-13T22:48:01.739Z,68.40
2019-03-13T22:50:31.246Z,68.40
2019-03-13T22:53:00.805Z,68.70
2019-03-13T22:55:31.909Z,68.50
2019-03-13T22:58:01.708Z,68.50
2019-03-13T23:00:53.537Z,68.80
2019-03-13T23:03:26.432Z,68.40
2019-03-13T23:05:56.406Z,68.50
2019-03-13T23:08:26.107Z,68.50
2019-03-13T23:10:55.666Z,68.70
2019-03-13T23:13:25.371Z,68.60
2019-03-13T23:15:54.995Z,68.50
2019-03-13T23:18:24.660Z,68.30
2019-03-13T23:20:54.294Z,68.60
2019-03-13T23:23:23.994Z,68.50
2019-03-13T23:25:53.762Z,68.40
2019-03-13T23:28:23.439Z,68.60
2019-03-13T23:30:53.182Z,68.50
2019-03-13T23:33:22.875Z,68.80
2019-03-13T23:35:52.632Z,68.80
2019-03-13T23:38:22.326Z,69.10
2019-03-13T23:40:52.072Z,69.10
2019-03-13T23:43:21.767Z,69.30
2019-03-13T23:45:51.507Z,69.40
2019-03-13T23:48:21.211Z,69.70
2019-03-13T23:50:50.943Z,69.70
2019-03-13T23:53:20.566Z,69.80
2019-03-13T23:55:50.298Z,70.10
2019-03-13T23:58:19.995Z,70.20
